createdAt,value
2023-04-09T00:00:08.485Z,47.35
2023-04-09T00:08:17.580Z,41.70
2023-04-09T00:16:25.751Z,35.70
2023-04-09T00:24:31.348Z,34.53
2023-04-09T00:32:39.443Z,35.55
2023-04-09T00:40:44.976Z,37.33
2023-04-09T00:48:53.399Z,35.83
2023-04-09T00:56:59.156Z,36.60
2023-04-09T01:05:07.896Z,35.58
2023-04-09T01:13:18.362Z,40.78
2023-04-09T01:21:33.426Z,43.25
2023-04-09T01:29:50.285Z,48.30
2023-04-09T01:37:57.476Z,43.70
2023-04-09T01:46:06.164Z,41.63
2023-04-09T01:54:11.733Z,43.10
2023-04-09T02:02:27.892Z,43.85
2023-04-09T02:10:34.893Z,41.97
2023-04-09T02:18:42.984Z,43.38
2023-04-09T02:26:48.516Z,43.92
2023-04-09T02:34:56.635Z,44.13
2023-04-09T02:43:02.206Z,48.22
2023-04-09T02:51:11.319Z,48.55
2023-04-09T02:59:16.995Z,43.03
2023-04-09T03:07:25.826Z,48.08
2023-04-09T03:15:31.299Z,49.13
2023-04-09T03:23:39.808Z,41.63
2023-04-09T03:31:46.624Z,34.85
2023-04-09T03:39:55.174Z,39.25
2023-04-09T03:48:03.779Z,33.05
2023-04-09T03:56:13.328Z,34.97
2023-04-09T04:04:21.241Z,36.67
2023-04-09T04:12:37.440Z,34.35
2023-04-09T04:20:50.181Z,36.50
2023-04-09T04:28:58.560Z,32.58
2023-04-09T04:37:22.474Z,31.38
2023-04-09T04:45:34.554Z,35.83
2023-04-09T04:53:45.983Z,32.90
2023-04-09T05:01:55.727Z,32.60
2023-04-09T05:10:01.399Z,35.38
2023-04-09T05:18:16.034Z,35.22
2023-04-09T05:26:21.821Z,36.35
2023-04-09T05:34:34.868Z,29.20
2023-04-09T05:42:40.587Z,28.30
2023-04-09T05:51:00.361Z,24.42
2023-04-09T05:59:07.093Z,24.70
2023-04-09T06:07:15.339Z,23.38
2023-04-09T06:15:21.707Z,27.30
2023-04-09T06:23:29.829Z,27.52
2023-04-09T06:31:35.365Z,26.13
2023-04-09T06:39:47.713Z,27.23
2023-04-09T06:48:03.606Z,24.25
2023-04-09T06:56:11.988Z,28.70
2023-04-09T07:04:17.581Z,26.02
2023-04-09T07:12:33.563Z,26.00
2023-04-09T07:20:39.039Z,25.65
2023-04-09T07:28:47.234Z,22.52
2023-04-09T07:36:54.086Z,24.17
2023-04-09T07:45:03.636Z,24.35
2023-04-09T07:53:10.010Z,19.25
2023-04-09T08:01:18.242Z,22.38
2023-04-09T08:09:24.311Z,20.40
2023-04-09T08:17:33.219Z,18.50
2023-04-09T08:25:38.735Z,19.40
2023-04-09T08:33:47.407Z,18.77
2023-04-09T08:41:55.154Z,17.23
2023-04-09T08:50:07.021Z,18.35
2023-04-09T08:58:12.860Z,17.27
2023-04-09T09:06:28.258Z,17.13
2023-04-09T09:14:36.683Z,16.15
2023-04-09T09:22:57.073Z,14.25
2023-04-09T09:31:12.190Z,12.38
2023-04-09T09:39:22.252Z,13.23
2023-04-09T09:47:29.688Z,13.60
2023-04-09T09:55:42.452Z,14.52
2023-04-09T10:03:49.001Z,18.37
2023-04-09T10:12:00.530Z,15.57
2023-04-09T10:20:14.574Z,11.02
2023-04-09T10:28:22.765Z,10.38
2023-04-09T10:36:29.312Z,9.07
2023-04-09T10:44:38.499Z,9.70
2023-04-09T10:52:44.758Z,8.95
2023-04-09T11:00:54.831Z,9.57
2023-04-09T11:09:05.487Z,9.63
2023-04-09T11:17:13.685Z,10.02
2023-04-09T11:25:30.549Z,11.23
2023-04-09T11:33:38.732Z,9.80
2023-04-09T11:41:44.317Z,7.88
2023-04-09T11:49:52.601Z,12.68
2023-04-09T11:58:01.455Z,7.45
2023-04-09T12:06:10.293Z,8.70
2023-04-09T12:14:17.094Z,8.50
2023-04-09T12:22:25.186Z,8.82
2023-04-09T12:30:30.864Z,8.38
2023-04-09T12:38:38.924Z,10.55
2023-04-09T12:46:44.369Z,10.75
2023-04-09T12:54:52.363Z,13.13
2023-04-09T13:02:57.888Z,10.45
2023-04-09T13:11:06.373Z,11.43
2023-04-09T13:19:12.372Z,10.45
2023-04-09T13:27:21.011Z,11.68
2023-04-09T13:35:26.979Z,10.15
2023-04-09T13:43:35.202Z,10.27
2023-04-09T13:51:40.726Z,10.73
2023-04-09T13:59:48.846Z,9.35
2023-04-09T14:07:54.241Z,10.88
2023-04-09T14:16:02.366Z,9.20
2023-04-09T14:24:08.156Z,10.18
2023-04-09T14:32:16.348Z,9.57
2023-04-09T14:40:21.946Z,9.38
2023-04-09T14:48:30.065Z,10.02
2023-04-09T14:56:35.680Z,12.07
2023-04-09T15:04:43.993Z,10.05
2023-04-09T15:13:03.151Z,12.65
2023-04-09T15:21:11.824Z,9.93
2023-04-09T15:29:17.344Z,9.60
2023-04-09T15:37:25.756Z,11.65
2023-04-09T15:45:31.451Z,10.45
2023-04-09T15:53:40.748Z,10.32
2023-04-09T16:01:46.293Z,14.35
2023-04-09T16:09:54.406Z,13.55
2023-04-09T16:18:00.087Z,13.90
2023-04-09T16:26:08.827Z,12.90
2023-04-09T16:34:14.409Z,14.48
2023-04-09T16:42:27.016Z,19.05
2023-04-09T16:50:32.708Z,23.38
2023-04-09T16:58:41.929Z,20.92
2023-04-09T17:06:47.462Z,19.55
2023-04-09T17:14:55.642Z,14.85
2023-04-09T17:23:01.209Z,17.33
2023-04-09T17:31:16.342Z,16.35
2023-04-09T17:39:24.468Z,15.88
2023-04-09T17:47:33.205Z,15.45
2023-04-09T17:55:38.724Z,14.23
2023-04-09T18:03:47.801Z,15.43
2023-04-09T18:11:56.638Z,17.77
2023-04-09T18:20:07.775Z,16.58
2023-04-09T18:28:13.259Z,17.98
2023-04-09T18:36:21.442Z,19.55
2023-04-09T18:44:27.827Z,19.35
2023-04-09T18:52:38.465Z,18.38
2023-04-09T19:00:44.259Z,20.23
2023-04-09T19:08:58.341Z,19.98
2023-04-09T19:17:03.963Z,18.98
2023-04-09T19:25:13.087Z,14.35
2023-04-09T19:33:18.554Z,15.45
2023-04-09T19:41:27.152Z,17.40
2023-04-09T19:49:32.617Z,16.10
2023-04-09T19:57:41.114Z,14.85
2023-04-09T20:05:46.614Z,13.13
2023-04-09T20:13:54.687Z,13.38
2023-04-09T20:22:00.488Z,15.75
2023-04-09T20:30:09.937Z,16.55
2023-04-09T20:38:15.431Z,17.17
2023-04-09T20:46:24.049Z,31.23
2023-04-09T20:54:29.779Z,25.27
2023-04-09T21:02:38.509Z,24.52
2023-04-09T21:10:44.119Z,26.10
2023-04-09T21:18:52.485Z,27.25
2023-04-09T21:26:59.005Z,19.73
2023-04-09T21:35:07.770Z,17.80
2023-04-09T21:43:13.473Z,18.75
2023-04-09T21:51:21.679Z,19.13
2023-04-09T21:59:27.195Z,14.40
2023-04-09T22:07:37.488Z,23.90
2023-04-09T22:15:43.313Z,17.60
2023-04-09T22:23:51.415Z,21.10
2023-04-09T22:31:57.093Z,21.48
2023-04-09T22:40:05.882Z,29.13
2023-04-09T22:48:11.802Z,25.58
2023-04-09T22:56:19.853Z,25.45
2023-04-09T23:04:25.950Z,23.50
2023-04-09T23:12:33.994Z,21.17
2023-04-09T23:20:39.715Z,19.77
2023-04-09T23:28:47.815Z,23.30
2023-04-09T23:36:53.299Z,21.25
2023-04-09T23:45:04.008Z,41.15
2023-04-09T23:53:09.603Z,33.58
